createdAt,value
2022-12-23T08:13:45.247Z,23.08
2022-12-23T08:15:47.110Z,23.98
2022-12-23T08:17:49.046Z,21.67
2022-12-23T08:19:50.940Z,24.38
2022-12-23T08:21:52.786Z,19.52
2022-12-23T08:23:54.715Z,20.50
2022-12-23T08:26:05.179Z,22.48
2022-12-23T08:28:07.039Z,24.40
2022-12-23T08:30:09.644Z,23.58
2022-12-23T08:32:11.921Z,23.88
2022-12-23T08:34:14.460Z,23.42
2022-12-23T08:36:23.007Z,24.20
2022-12-23T08:38:25.557Z,25.33
2022-12-23T08:40:27.454Z,23.83
2022-12-23T08:42:29.344Z,29.30
2022-12-23T08:44:32.727Z,25.02
2022-12-23T08:46:35.343Z,25.92
2022-12-23T08:48:37.894Z,22.45
2022-12-23T08:50:41.798Z,20.88
2022-12-23T08:52:43.696Z,20.60
2022-12-23T08:54:45.691Z,21.15
2022-12-23T08:56:47.807Z,24.88
2022-12-23T09:00:52.889Z,24.10
2022-12-23T09:02:54.890Z,24.73
2022-12-23T09:06:58.640Z,23.47
2022-12-23T09:09:00.786Z,27.35
2022-12-23T09:13:05.072Z,23.50
2022-12-23T09:17:09.183Z,21.20
2022-12-23T09:19:11.107Z,20.02
2022-12-23T09:21:15.751Z,20.33
2022-12-23T09:23:17.609Z,27.25
2022-12-23T09:25:19.444Z,24.85
2022-12-23T09:27:21.360Z,24.45
2022-12-23T09:29:23.319Z,21.33
2022-12-23T09:31:30.455Z,24.30
2022-12-23T09:33:34.621Z,23.75
2022-12-23T09:37:38.237Z,22.40
2022-12-23T09:39:40.142Z,21.55
2022-12-23T09:42:16.575Z,24.50
2022-12-23T09:44:33.275Z,24.52
2022-12-23T09:46:43.018Z,19.00
2022-12-23T09:49:09.522Z,21.65
2022-12-23T09:51:12.987Z,22.23
2022-12-23T09:53:21.593Z,25.80
2022-12-23T09:55:31.645Z,22.45
2022-12-23T09:57:41.987Z,24.83
2022-12-23T09:59:46.593Z,25.98
2022-12-23T10:02:03.975Z,24.50
2022-12-23T10:04:27.538Z,21.83
2022-12-23T10:06:30.955Z,24.55
2022-12-23T10:08:44.659Z,26.02
2022-12-23T10:10:54.202Z,27.95
2022-12-23T10:12:56.723Z,44.47
2022-12-23T10:15:02.676Z,33.53
2022-12-23T10:17:14.744Z,40.45
2022-12-23T10:19:35.539Z,32.50
2022-12-23T10:21:47.971Z,63.92
2022-12-23T10:37:29.551Z,43.70
2022-12-23T10:39:41.821Z,36.38
2022-12-23T10:41:43.656Z,26.08
2022-12-23T10:44:22.310Z,34.55
2022-12-23T10:46:33.302Z,26.35
2022-12-23T10:48:55.036Z,26.20
2022-12-23T10:51:19.183Z,24.20
2022-12-23T10:53:33.603Z,31.42
2022-12-23T10:55:40.843Z,33.53
2022-12-23T10:57:43.154Z,24.45
2022-12-23T10:59:45.727Z,28.38
2022-12-23T11:01:54.206Z,24.20
2022-12-23T11:04:08.911Z,33.28
2022-12-23T11:06:12.730Z,31.25
2022-12-23T11:08:14.803Z,28.27
2022-12-23T11:12:40.503Z,27.35
2022-12-23T11:14:53.085Z,28.70
2022-12-23T11:16:55.037Z,30.98
2022-12-23T11:19:00.537Z,28.50
2022-12-23T11:21:04.998Z,27.42
2022-12-23T11:23:23.263Z,26.10
2022-12-23T11:25:38.563Z,24.98
2022-12-23T11:27:44.650Z,23.00
2022-12-23T11:29:54.319Z,25.08
2022-12-23T11:31:56.457Z,27.80
2022-12-23T11:36:02.504Z,22.60
2022-12-23T11:38:04.596Z,22.95
2022-12-23T11:42:17.487Z,27.63
2022-12-23T11:44:28.038Z,27.55
2022-12-23T11:46:32.992Z,24.92
2022-12-23T11:48:34.872Z,23.27
2022-12-23T11:50:40.081Z,24.42
2022-12-23T11:52:51.327Z,22.48
2022-12-23T11:54:56.039Z,25.45
2022-12-23T11:56:59.108Z,23.02
2022-12-23T11:59:09.960Z,24.48
2022-12-23T14:15:27.248Z,51.35
2022-12-23T14:17:45.379Z,53.67
2022-12-23T14:20:30.848Z,83.03
2022-12-23T14:22:41.191Z,65.47
2022-12-23T14:25:01.679Z,51.83
2022-12-23T14:27:42.393Z,60.80
2022-12-23T14:30:19.207Z,61.45
2022-12-23T14:32:28.819Z,65.20
2022-12-23T14:34:33.159Z,63.05
2022-12-23T14:36:35.602Z,66.60
2022-12-23T14:38:37.991Z,73.05
2022-12-23T14:40:39.861Z,90.57
2022-12-23T14:42:43.495Z,75.53
2022-12-23T14:44:49.802Z,74.93
2022-12-23T14:46:53.377Z,80.68
2022-12-23T14:49:15.859Z,68.05
2022-12-23T14:51:35.599Z,75.78
2022-12-23T14:53:52.536Z,77.18
2022-12-23T14:56:16.890Z,75.80
2022-12-23T14:58:20.112Z,71.03
2022-12-23T15:00:23.214Z,69.80
2022-12-23T15:02:37.524Z,67.53
2022-12-23T15:04:47.987Z,65.25
2022-12-23T15:06:55.123Z,65.07
2022-12-23T15:08:57.464Z,62.85
2022-12-23T15:10:59.911Z,64.57
2022-12-23T15:13:06.272Z,77.95
2022-12-23T15:15:15.754Z,75.80
2022-12-23T15:17:30.646Z,77.72
2022-12-23T15:19:33.354Z,64.30
2022-12-23T15:21:36.478Z,64.75
2022-12-23T15:23:38.323Z,54.03
2022-12-23T15:25:46.651Z,58.15
2022-12-23T15:27:49.160Z,57.33
2022-12-23T15:29:54.185Z,58.88
2022-12-23T15:31:58.616Z,49.78
2022-12-23T15:34:10.224Z,54.95
2022-12-23T15:36:27.596Z,51.25
2022-12-23T15:38:32.146Z,55.15
2022-12-23T15:40:38.541Z,50.35
2022-12-23T15:42:48.042Z,58.15
2022-12-23T15:44:50.077Z,53.25
2022-12-23T15:46:52.453Z,63.38
2022-12-23T15:48:54.961Z,50.83
2022-12-23T15:51:05.803Z,55.08
2022-12-23T15:53:09.806Z,51.83
2022-12-23T15:55:22.417Z,55.28
2022-12-23T15:57:27.348Z,48.80
2022-12-23T15:59:34.588Z,56.60
2022-12-23T16:01:41.027Z,63.60
2022-12-23T16:03:50.484Z,59.15
2022-12-23T16:05:53.074Z,60.45
2022-12-23T16:08:21.703Z,58.20
2022-12-23T16:10:28.823Z,55.28
2022-12-23T16:14:38.259Z,59.60
2022-12-23T16:16:42.405Z,75.35
2022-12-23T16:18:47.545Z,68.80
2022-12-23T16:20:56.197Z,64.85
2022-12-23T16:23:01.906Z,69.35
2022-12-23T16:25:12.291Z,58.90
2022-12-23T16:27:17.652Z,70.43
2022-12-23T16:29:19.697Z,65.63
2022-12-23T16:31:23.357Z,65.68
2022-12-23T16:33:39.741Z,70.05
2022-12-23T16:35:43.428Z,60.97
2022-12-23T16:37:50.853Z,61.63
2022-12-23T16:39:54.052Z,56.50
2022-12-23T16:41:55.991Z,73.28
2022-12-23T16:43:58.492Z,53.03
2022-12-23T16:46:00.721Z,55.55
2022-12-23T16:48:08.291Z,69.47
2022-12-23T16:50:14.367Z,58.50
2022-12-23T16:52:16.430Z,64.15
2022-12-23T16:56:23.913Z,67.88
2022-12-23T16:58:26.177Z,83.55
2022-12-23T17:00:28.170Z,131.00
2022-12-23T17:02:30.151Z,117.00
2022-12-23T17:04:32.080Z,94.72
2022-12-23T17:06:35.995Z,78.75
2022-12-23T17:08:37.962Z,83.15
2022-12-23T17:10:41.922Z,82.70
2022-12-23T17:12:46.475Z,84.72
2022-12-23T17:14:48.576Z,99.47
2022-12-23T17:18:53.591Z,82.68
2022-12-23T17:20:56.044Z,86.00
2022-12-23T17:25:02.074Z,65.80
2022-12-23T17:27:14.932Z,75.07
2022-12-23T17:29:17.734Z,62.95
2022-12-23T17:31:26.650Z,66.28
2022-12-23T17:33:32.185Z,68.70
2022-12-23T17:35:34.248Z,66.20
2022-12-23T17:39:40.364Z,62.28
2022-12-23T17:43:44.419Z,53.28
2022-12-23T17:45:47.158Z,64.53
2022-12-23T17:47:50.246Z,67.47
2022-12-23T17:49:52.385Z,58.53
2022-12-23T17:51:55.380Z,68.82
2022-12-23T17:54:03.873Z,63.60
2022-12-23T17:56:15.753Z,61.17
2022-12-23T17:58:17.846Z,65.70
2022-12-23T20:19:56.832Z,115.47
2022-12-23T20:22:04.491Z,124.60
2022-12-23T20:24:09.952Z,90.63
2022-12-23T20:26:15.892Z,84.40
2022-12-23T20:28:21.096Z,82.35
2022-12-23T20:30:23.176Z,76.63
2022-12-23T20:34:33.286Z,72.18
2022-12-23T20:36:40.506Z,77.00
2022-12-23T20:38:44.476Z,68.93
2022-12-23T20:40:46.420Z,67.78
2022-12-23T20:42:48.269Z,73.25
2022-12-23T20:44:50.913Z,71.07
2022-12-23T20:46:52.879Z,74.68
2022-12-23T20:48:54.856Z,69.30
2022-12-23T20:50:57.234Z,67.70
2022-12-23T20:52:59.093Z,64.40
2022-12-23T20:55:01.772Z,71.97
2022-12-23T20:57:04.003Z,64.25
2022-12-23T20:59:05.934Z,69.30
2022-12-23T21:01:12.471Z,70.43
2022-12-23T21:03:14.783Z,67.15
2022-12-23T21:05:16.748Z,65.15
2022-12-23T21:07:18.665Z,68.13
2022-12-23T21:09:20.781Z,69.20
2022-12-23T21:15:27.221Z,73.93
2022-12-23T21:17:31.206Z,78.60
2022-12-23T21:19:34.808Z,79.65
2022-12-23T21:21:36.867Z,82.43
2022-12-23T21:25:41.847Z,78.60
2022-12-23T21:27:43.813Z,82.38
2022-12-23T21:29:45.659Z,81.90
2022-12-23T21:31:47.863Z,77.55
2022-12-23T21:33:51.905Z,78.05
2022-12-23T21:35:54.245Z,75.10
2022-12-23T21:37:56.304Z,81.40
2022-12-23T21:39:58.227Z,73.47
2022-12-23T21:42:00.107Z,86.05
2022-12-23T21:44:02.913Z,72.95
2022-12-23T21:46:08.949Z,84.97
2022-12-23T21:48:12.962Z,73.18
2022-12-23T21:50:14.857Z,73.68
2022-12-23T21:52:16.812Z,80.03
2022-12-23T21:54:19.039Z,95.47
2022-12-23T21:56:26.890Z,81.22
2022-12-23T21:58:29.075Z,93.63
2022-12-23T22:00:30.965Z,88.70
2022-12-23T22:02:32.957Z,88.45
2022-12-23T22:06:39.287Z,75.35
2022-12-23T22:08:54.687Z,79.88
2022-12-23T22:10:56.869Z,74.82
2022-12-23T22:12:58.742Z,71.57
2022-12-23T22:15:01.986Z,87.13
2022-12-23T22:17:06.915Z,74.57
2022-12-23T22:19:11.191Z,73.90
2022-12-23T22:21:20.347Z,66.90
2022-12-23T22:23:22.258Z,66.65
2022-12-23T22:25:24.223Z,62.03
2022-12-23T22:27:27.153Z,62.78
2022-12-23T22:29:29.158Z,75.35
2022-12-23T22:31:37.483Z,67.93
2022-12-23T22:33:39.484Z,71.53
2022-12-23T22:35:41.545Z,81.85
2022-12-23T22:37:43.994Z,82.40
2022-12-23T22:39:45.867Z,89.82
2022-12-23T22:41:48.039Z,88.45
2022-12-23T22:43:51.087Z,146.13
2022-12-23T22:46:01.099Z,126.00
2022-12-23T22:48:03.291Z,211.10
2022-12-23T22:52:07.563Z,359.48
2022-12-23T22:54:10.365Z,248.30
2022-12-23T22:56:14.657Z,146.75
2022-12-23T22:58:16.688Z,140.25
2022-12-23T23:00:19.805Z,110.68
2022-12-23T23:02:21.730Z,401.02
2022-12-23T23:04:23.796Z,116.43
2022-12-23T23:06:31.968Z,210.13
2022-12-23T23:08:34.644Z,246.57
2022-12-23T23:10:37.863Z,374.90
2022-12-23T23:12:40.060Z,331.55
2022-12-23T23:14:53.857Z,295.48
2022-12-23T23:16:55.830Z,280.60
2022-12-23T23:18:59.124Z,297.00
2022-12-23T23:21:01.129Z,349.88
2022-12-23T23:23:02.986Z,222.55
2022-12-23T23:25:05.582Z,464.65
2022-12-23T23:27:07.562Z,171.40
2022-12-23T23:29:09.526Z,405.00
2022-12-23T23:33:34.523Z,125.05
2022-12-23T23:35:36.847Z,142.77
2022-12-23T23:37:38.909Z,98.35
2022-12-23T23:41:44.824Z,124.53
2022-12-23T23:43:46.790Z,93.38
2022-12-23T23:45:49.566Z,177.63
2022-12-23T23:47:52.538Z,148.20
2022-12-23T23:49:54.442Z,168.20
2022-12-23T23:51:56.326Z,291.70
2022-12-23T23:53:58.292Z,311.77
2022-12-23T23:56:06.373Z,205.45
2022-12-23T23:58:08.802Z,175.75
